Time,TemperatureF,DewpointF,PressureIn,WindDirection,WindDirectionDegrees,WindSpeedMPH,WindSpeedGustMPH,Humidity,HourlyPrecipIn,Conditions,Clouds,dailyrainin,SoftwareType,DateUTC
2013-04-23 00:02:00,20.0,17.0,30.34,NW,323,6.0,-999.0,89,-99.99,,,-99.99,,2013-04-23 06:02:00,
2013-04-23 00:12:00,20.0,17.0,30.32,NNW,328,6.0,-999.0,89,-99.99,,,-99.99,,2013-04-23 06:12:00,
2013-04-23 00:21:00,20.0,17.0,30.34,North,-999,5.0,-999.0,88,-99.99,,,-99.99,,2013-04-23 06:21:00,
2013-04-23 00:33:00,20.0,17.0,30.32,North,-999,4.0,-999.0,88,-99.99,,,-99.99,,2013-04-23 06:33:00,
2013-04-23 00:42:00,19.0,16.0,30.35,North,11,5.0,-999.0,88,-99.99,,,-99.99,,2013-04-23 06:42:00,
2013-04-23 00:52:00,20.0,17.0,30.34,NE,50,6.0,-999.0,88,-99.99,,,-99.99,,2013-04-23 06:52:00,
2013-04-23 01:02:00,19.0,16.0,30.33,NE,50,5.0,-999.0,88,-99.99,,,-99.99,,2013-04-23 07:02:00,
2013-04-23 01:11:00,19.0,16.0,30.34,ENE,60,6.0,-999.0,88,-99.99,,,-99.99,,2013-04-23 07:11:00,
2013-04-23 01:21:00,19.0,17.0,30.34,ENE,63,5.0,-999.0,89,-99.99,,,-99.99,,2013-04-23 07:21:00,
2013-04-23 01:32:00,20.0,17.0,30.32,ENE,65,5.0,-999.0,89,-99.99,,,-99.99,,2013-04-23 07:32:00,
2013-04-23 01:42:00,20.0,18.0,30.32,ENE,67,5.0,-999.0,90,-99.99,,,-99.99,,2013-04-23 07:42:00,
2013-04-23 01:52:00,21.0,18.0,30.31,East,90,7.0,-999.0,90,-99.99,,,-99.99,,2013-04-23 07:52:00,
2013-04-23 02:02:00,20.0,18.0,30.30,East,92,7.0,-999.0,89,-99.99,,,-99.99,,2013-04-23 08:02:00,
2013-04-23 02:11:00,20.0,17.0,30.30,ESE,102,6.0,-999.0,87,-99.99,,,-99.99,,2013-04-23 08:11:00,
2013-04-23 02:21:00,20.0,15.0,30.33,SE,127,7.0,-999.0,83,-99.99,,,-99.99,,2013-04-23 08:21:00,
2013-04-23 02:32:00,20.0,15.0,30.31,ESE,118,6.0,-999.0,81,-99.99,,,-99.99,,2013-04-23 08:32:00,
2013-04-23 02:42:00,22.0,17.0,30.31,ESE,123,5.0,-999.0,80,-99.99,,,-99.99,,2013-04-23 08:42:00,
2013-04-23 02:52:00,22.0,17.0,30.30,SE,142,3.0,-999.0,80,-99.99,,,-99.99,,2013-04-23 08:52:00,
2013-04-23 03:01:00,21.0,16.0,30.30,South,170,4.0,-999.0,82,-99.99,,,-99.99,,2013-04-23 09:01:00,
2013-04-23 03:11:00,19.0,16.0,30.29,South,176,3.0,-999.0,87,-99.99,,,-99.99,,2013-04-23 09:11:00,
2013-04-23 03:21:00,17.0,15.0,30.27,WSW,239,1.0,-999.0,90,-99.99,,,-99.99,,2013-04-23 09:21:00,
2013-04-23 03:33:00,17.0,15.0,30.29,WSW,254,3.0,-999.0,91,-99.99,,,-99.99,,2013-04-23 09:33:00,
2013-04-23 03:43:00,16.0,14.0,30.29,WSW,258,3.0,-999.0,93,-99.99,,,-99.99,,2013-04-23 09:43:00,
2013-04-23 03:52:00,16.0,14.0,30.30,WSW,256,4.0,-999.0,93,-99.99,,,-99.99,,2013-04-23 09:52:00,
2013-04-23 04:02:00,15.0,14.0,30.29,WSW,257,6.0,-999.0,94,-99.99,,,-99.99,,2013-04-23 10:02:00,
2013-04-23 04:13:00,15.0,13.0,30.28,West,268,7.0,-999.0,94,-99.99,,,-99.99,,2013-04-23 10:13:00,
2013-04-23 04:22:00,12.0,10.0,30.28,SW,229,6.0,-999.0,91,-99.99,,,-99.99,,2013-04-23 10:22:00,
2013-04-23 04:33:00,12.0,10.0,30.29,WSW,258,9.0,-999.0,92,-99.99,,,-99.99,,2013-04-23 10:33:00,
2013-04-23 04:42:00,12.0,10.0,30.28,WSW,256,8.0,-999.0,91,-99.99,,,-99.99,,2013-04-23 10:42:00,
2013-04-23 04:52:00,13.0,11.0,30.29,WSW,242,7.0,-999.0,92,-99.99,,,-99.99,,2013-04-23 10:52:00,
2013-04-23 05:03:00,13.0,11.0,30.28,WSW,239,7.0,-999.0,92,-99.99,,,-99.99,,2013-04-23 11:03:00,
2013-04-23 05:12:00,14.0,12.0,30.26,WSW,248,7.0,-999.0,92,-99.99,,,-99.99,,2013-04-23 11:12:00,
2013-04-23 05:21:00,14.0,12.0,30.29,WSW,247,7.0,-999.0,92,-99.99,,,-99.99,,2013-04-23 11:21:00,
2013-04-23 05:32:00,13.0,11.0,30.27,WSW,238,6.0,-999.0,92,-99.99,,,-99.99,,2013-04-23 11:32:00,
2013-04-23 05:42:00,13.0,12.0,30.28,SW,227,7.0,-999.0,92,-99.99,,,-99.99,,2013-04-23 11:42:00,
2013-04-23 05:52:00,14.0,12.0,30.27,SW,226,7.0,-999.0,92,-99.99,,,-99.99,,2013-04-23 11:52:00,
2013-04-23 06:02:00,15.0,13.0,30.26,WSW,238,8.0,-999.0,93,-99.99,,,-99.99,,2013-04-23 12:02:00,
2013-04-23 06:12:00,13.0,12.0,30.27,SW,236,7.0,-999.0,92,-99.99,,,-99.99,,2013-04-23 12:12:00,
2013-04-23 06:22:00,13.0,12.0,30.26,SW,224,9.0,-999.0,92,-99.99,,,-99.99,,2013-04-23 12:22:00,
2013-04-23 06:32:00,13.0,12.0,30.25,SW,228,8.0,-999.0,92,-99.99,,,-99.99,,2013-04-23 12:32:00,
2013-04-23 06:42:00,13.0,12.0,30.25,SW,228,8.0,-999.0,92,-99.99,,,-99.99,,2013-04-23 12:42:00,
2013-04-23 06:52:00,13.0,11.0,30.26,WSW,246,9.0,-999.0,92,-99.99,,,-99.99,,2013-04-23 12:52:00,
2013-04-23 07:01:00,12.0,11.0,30.28,WSW,244,8.0,-999.0,92,-99.99,,,-99.99,,2013-04-23 13:01:00,
2013-04-23 07:11:00,13.0,11.0,30.27,WSW,244,8.0,-999.0,92,-99.99,,,-99.99,,2013-04-23 13:11:00,
2013-04-23 07:21:00,13.0,12.0,30.26,WSW,249,9.0,-999.0,92,-99.99,,,-99.99,,2013-04-23 13:21:00,
2013-04-23 07:32:00,13.0,12.0,30.26,WSW,240,8.0,-999.0,92,-99.99,,,-99.99,,2013-04-23 13:32:00,
2013-04-23 07:42:00,14.0,12.0,30.25,WSW,247,8.0,-999.0,92,-99.99,,,-99.99,,2013-04-23 13:42:00,
2013-04-23 07:52:00,13.0,11.0,30.27,WSW,238,7.0,-999.0,91,-99.99,,,-99.99,,2013-04-23 13:52:00,
2013-04-23 08:02:00,13.0,11.0,30.27,WSW,238,7.0,-999.0,91,-99.99,,,-99.99,,2013-04-23 14:02:00,
2013-04-23 08:11:00,14.0,12.0,30.27,WSW,245,9.0,-999.0,91,-99.99,,,-99.99,,2013-04-23 14:11:00,
2013-04-23 08:22:00,15.0,13.0,30.29,WSW,242,7.0,-999.0,91,-99.99,,,-99.99,,2013-04-23 14:22:00,
2013-04-23 08:32:00,15.0,13.0,30.28,WSW,245,8.0,-999.0,90,-99.99,,,-99.99,,2013-04-23 14:32:00,
2013-04-23 08:42:00,16.0,14.0,30.26,SW,236,10.0,-999.0,90,-99.99,,,-99.99,,2013-04-23 14:42:00,
2013-04-23 08:52:00,18.0,15.0,30.28,WSW,239,10.0,-999.0,89,-99.99,,,-99.99,,2013-04-23 14:52:00,
2013-04-23 09:01:00,18.0,15.0,30.27,WSW,243,10.0,-999.0,88,-99.99,,,-99.99,,2013-04-23 15:01:00,
2013-04-23 09:12:00,18.0,15.0,30.28,WSW,245,11.0,-999.0,86,-99.99,,,-99.99,,2013-04-23 15:12:00,
2013-04-23 09:21:00,19.0,15.0,30.26,WSW,249,11.0,-999.0,84,-99.99,,,-99.99,,2013-04-23 15:21:00,
2013-04-23 09:32:00,20.0,16.0,30.27,WSW,240,11.0,-999.0,84,-99.99,,,-99.99,,2013-04-23 15:32:00,
2013-04-23 09:42:00,20.0,16.0,30.25,WSW,247,13.0,-999.0,82,-99.99,,,-99.99,,2013-04-23 15:42:00,
2013-04-23 09:53:00,21.0,16.0,30.26,WSW,255,15.0,-999.0,80,-99.99,,,-99.99,,2013-04-23 15:53:00,
2013-04-23 10:03:00,22.0,16.0,30.24,WSW,246,12.0,-999.0,78,-99.99,,,-99.99,,2013-04-23 16:03:00,
2013-04-23 10:12:00,23.0,17.0,30.26,WSW,258,14.0,-999.0,76,-99.99,,,-99.99,,2013-04-23 16:12:00,
2013-04-23 10:23:00,24.0,17.0,30.26,West,274,15.0,-999.0,73,-99.99,,,-99.99,,2013-04-23 16:23:00,
2013-04-23 10:34:00,24.0,17.0,30.24,West,276,13.0,-999.0,74,-99.99,,,-99.99,,2013-04-23 16:34:00,
2013-04-23 10:43:00,25.0,17.0,30.25,West,280,12.0,-999.0,72,-99.99,,,-99.99,,2013-04-23 16:43:00,
2013-04-23 10:52:00,25.0,17.0,30.28,West,278,11.0,-999.0,73,-99.99,,,-99.99,,2013-04-23 16:52:00,
2013-04-23 11:02:00,26.0,17.0,30.25,WNW,290,13.0,-999.0,69,-99.99,,,-99.99,,2013-04-23 17:02:00,
2013-04-23 11:12:00,26.0,16.0,30.25,West,281,11.0,-999.0,67,-99.99,,,-99.99,,2013-04-23 17:12:00,
2013-04-23 11:22:00,27.0,18.0,30.24,West,278,9.0,-999.0,68,-99.99,,,-99.99,,2013-04-23 17:22:00,
2013-04-23 11:32:00,28.0,18.0,30.26,WSW,253,11.0,-999.0,67,-99.99,,,-99.99,,2013-04-23 17:32:00,
2013-04-23 11:42:00,28.0,18.0,30.25,West,261,10.0,-999.0,65,-99.99,,,-99.99,,2013-04-23 17:42:00,
2013-04-23 11:53:00,29.0,18.0,30.24,West,260,17.0,-999.0,65,-99.99,,,-99.99,,2013-04-23 17:53:00,
2013-04-23 12:02:00,29.0,18.0,30.24,West,260,17.0,-999.0,65,-99.99,,,-99.99,,2013-04-23 18:02:00,
2013-04-23 12:12:00,28.0,19.0,30.22,West,261,12.0,-999.0,67,-99.99,,,-99.99,,2013-04-23 18:12:00,
2013-04-23 12:22:00,28.0,19.0,30.22,West,259,10.0,-999.0,67,-99.99,,,-99.99,,2013-04-23 18:22:00,
2013-04-23 12:32:00,29.0,20.0,30.22,West,278,16.0,-999.0,68,-99.99,,,-99.99,,2013-04-23 18:32:00,
2013-04-23 12:42:00,29.0,19.0,30.21,West,274,15.0,-999.0,67,-99.99,,,-99.99,,2013-04-23 18:42:00,
2013-04-23 12:52:00,29.0,19.0,30.22,West,274,12.0,-999.0,64,-99.99,,,-99.99,,2013-04-23 18:52:00,
2013-04-23 13:02:00,29.0,19.0,30.22,West,279,15.0,-999.0,65,-99.99,,,-99.99,,2013-04-23 19:02:00,
2013-04-23 13:11:00,29.0,18.0,30.21,West,271,12.0,-999.0,63,-99.99,,,-99.99,,2013-04-23 19:11:00,
2013-04-23 13:22:00,30.0,18.0,30.21,West,275,14.0,-999.0,61,-99.99,,,-99.99,,2013-04-23 19:22:00,
2013-04-23 13:32:00,30.0,20.0,30.21,WNW,287,13.0,-999.0,64,-99.99,,,-99.99,,2013-04-23 19:32:00,
2013-04-23 13:42:00,30.0,18.0,30.19,West,262,15.0,-999.0,60,-99.99,,,-99.99,,2013-04-23 19:42:00,
2013-04-23 13:52:00,31.0,18.0,30.19,WNW,293,7.0,-999.0,58,-99.99,,,-99.99,,2013-04-23 19:52:00,
2013-04-23 14:02:00,31.0,18.0,30.19,WNW,293,7.0,-999.0,58,-99.99,,,-99.99,,2013-04-23 20:02:00,
2013-04-23 14:11:00,32.0,18.0,30.19,West,272,11.0,-999.0,56,-99.99,,,-99.99,,2013-04-23 20:11:00,
2013-04-23 14:22:00,32.0,18.0,30.20,WNW,291,10.0,-999.0,57,-99.99,,,-99.99,,2013-04-23 20:22:00,
2013-04-23 14:32:00,31.0,14.0,30.19,West,276,12.0,-999.0,48,-99.99,,,-99.99,,2013-04-23 20:32:00,
2013-04-23 14:42:00,32.0,14.0,30.17,NW,304,12.0,-999.0,47,-99.99,,,-99.99,,2013-04-23 20:42:00,
2013-04-23 14:52:00,32.0,12.0,30.17,NW,305,14.0,-999.0,42,-99.99,,,-99.99,,2013-04-23 20:52:00,
2013-04-23 15:02:00,32.0,12.0,30.17,NW,305,14.0,-999.0,42,-99.99,,,-99.99,,2013-04-23 21:02:00,
2013-04-23 15:12:00,32.0,12.0,30.17,West,274,17.0,-999.0,42,-99.99,,,-99.99,,2013-04-23 21:12:00,
2013-04-23 15:22:00,33.0,14.0,30.19,West,280,11.0,-999.0,45,-99.99,,,-99.99,,2013-04-23 21:22:00,
2013-04-23 15:33:00,34.0,17.0,30.16,West,269,15.0,-999.0,49,-99.99,,,-99.99,,2013-04-23 21:33:00,
2013-04-23 15:43:00,34.0,15.0,30.17,WSW,248,10.0,-999.0,44,-99.99,,,-99.99,,2013-04-23 21:43:00,
2013-04-23 15:52:00,34.0,15.0,30.16,West,264,14.0,-999.0,45,-99.99,,,-99.99,,2013-04-23 21:52:00,
2013-04-23 16:03:00,33.0,14.0,30.15,West,279,13.0,-999.0,45,-99.99,,,-99.99,,2013-04-23 22:03:00,
2013-04-23 16:12:00,33.0,14.0,30.15,WNW,294,10.0,-999.0,44,-99.99,,,-99.99,,2013-04-23 22:12:00,
2013-04-23 16:22:00,34.0,15.0,30.15,WSW,251,9.0,-999.0,45,-99.99,,,-99.99,,2013-04-23 22:22:00,
2013-04-23 16:33:00,35.0,15.0,30.16,West,271,11.0,-999.0,43,-99.99,,,-99.99,,2013-04-23 22:33:00,
2013-04-23 16:42:00,34.0,16.0,30.15,WSW,247,12.0,-999.0,46,-99.99,,,-99.99,,2013-04-23 22:42:00,
2013-04-23 16:52:00,35.0,16.0,30.14,WSW,250,13.0,-999.0,47,-99.99,,,-99.99,,2013-04-23 22:52:00,
2013-04-23 17:03:00,34.0,15.0,30.14,WSW,250,8.0,-999.0,46,-99.99,,,-99.99,,2013-04-23 23:03:00,
2013-04-23 17:12:00,35.0,16.0,30.13,West,263,12.0,-999.0,47,-99.99,,,-99.99,,2013-04-23 23:12:00,
2013-04-23 17:22:00,35.0,16.0,30.13,WSW,256,9.0,-999.0,45,-99.99,,,-99.99,,2013-04-23 23:22:00,
2013-04-23 17:32:00,36.0,18.0,30.13,West,281,10.0,-999.0,47,-99.99,,,-99.99,,2013-04-23 23:32:00,
2013-04-23 17:42:00,35.0,15.0,30.13,WSW,246,12.0,-999.0,45,-99.99,,,-99.99,,2013-04-23 23:42:00,
2013-04-23 17:52:00,35.0,15.0,30.12,West,278,11.0,-999.0,43,-99.99,,,-99.99,,2013-04-23 23:52:00,
2013-04-23 18:01:00,35.0,15.0,30.13,West,263,13.0,-999.0,44,-99.99,,,-99.99,,2013-04-24 00:01:00,
2013-04-23 18:11:00,34.0,14.0,30.12,West,262,12.0,-999.0,42,-99.99,,,-99.99,,2013-04-24 00:11:00,
2013-04-23 18:22:00,35.0,16.0,30.13,WSW,253,12.0,-999.0,46,-99.99,,,-99.99,,2013-04-24 00:22:00,
2013-04-23 18:32:00,35.0,16.0,30.13,WSW,240,10.0,-999.0,47,-99.99,,,-99.99,,2013-04-24 00:32:00,
2013-04-23 18:41:00,35.0,16.0,30.13,WSW,240,10.0,-999.0,47,-99.99,,,-99.99,,2013-04-24 00:41:00,
2013-04-23 18:52:00,34.0,17.0,30.11,WSW,247,12.0,-999.0,48,-99.99,,,-99.99,,2013-04-24 00:52:00,
2013-04-23 19:02:00,34.0,18.0,30.12,WSW,237,8.0,-999.0,51,-99.99,,,-99.99,,2013-04-24 01:02:00,
2013-04-23 19:11:00,34.0,18.0,30.13,WSW,254,8.0,-999.0,51,-99.99,,,-99.99,,2013-04-24 01:11:00,
2013-04-23 19:21:00,33.0,18.0,30.11,SW,230,10.0,-999.0,54,-99.99,,,-99.99,,2013-04-24 01:21:00,
2013-04-23 19:32:00,33.0,19.0,30.12,SW,222,10.0,-999.0,57,-99.99,,,-99.99,,2013-04-24 01:32:00,
2013-04-23 19:42:00,32.0,20.0,30.11,SW,232,9.0,-999.0,60,-99.99,,,-99.99,,2013-04-24 01:42:00,
2013-04-23 19:52:00,31.0,20.0,30.11,SW,228,10.0,-999.0,64,-99.99,,,-99.99,,2013-04-24 01:52:00,
2013-04-23 20:02:00,30.0,20.0,30.11,SW,228,10.0,-999.0,64,-99.99,,,-99.99,,2013-04-24 02:02:00,
2013-04-23 20:17:00,29.0,19.0,30.13,SW,229,9.0,-999.0,65,-99.99,,,-99.99,,2013-04-24 02:17:00,
2013-04-23 20:39:00,29.0,18.0,30.11,SW,227,8.0,-999.0,64,-99.99,,,-99.99,,2013-04-24 02:39:00,
2013-04-23 20:47:00,29.0,18.0,30.11,SW,219,8.0,-999.0,63,-99.99,,,-99.99,,2013-04-24 02:47:00,
2013-04-23 20:56:00,29.0,17.0,30.11,SW,228,7.0,-999.0,60,-99.99,,,-99.99,,2013-04-24 02:56:00,
2013-04-23 21:17:00,29.0,17.0,30.12,SSW,212,7.0,-999.0,62,-99.99,,,-99.99,,2013-04-24 03:17:00,
2013-04-23 21:29:00,29.0,18.0,30.12,SW,218,9.0,-999.0,63,-99.99,,,-99.99,,2013-04-24 03:29:00,
2013-04-23 21:50:00,28.0,18.0,30.11,SW,217,8.0,-999.0,64,-99.99,,,-99.99,,2013-04-24 03:50:00,
2013-04-23 21:56:00,28.0,17.0,30.13,SSW,209,9.0,-999.0,64,-99.99,,,-99.99,,2013-04-24 03:56:00,
2013-04-23 22:03:00,27.0,18.0,30.11,SSW,194,10.0,-999.0,66,-99.99,,,-99.99,,2013-04-24 04:03:00,
2013-04-23 22:12:00,28.0,18.0,30.10,South,189,10.0,-999.0,66,-99.99,,,-99.99,,2013-04-24 04:12:00,
2013-04-23 22:23:00,27.0,18.0,30.11,South,190,11.0,-999.0,67,-99.99,,,-99.99,,2013-04-24 04:23:00,
2013-04-23 22:33:00,27.0,18.0,30.11,South,190,12.0,-999.0,69,-99.99,,,-99.99,,2013-04-24 04:33:00,
2013-04-23 22:43:00,27.0,18.0,30.10,South,186,12.0,-999.0,70,-99.99,,,-99.99,,2013-04-24 04:43:00,
2013-04-23 22:52:00,26.0,18.0,30.09,South,185,13.0,-999.0,72,-99.99,,,-99.99,,2013-04-24 04:52:00,
2013-04-23 23:02:00,26.0,18.0,30.10,SSW,193,11.0,-999.0,73,-99.99,,,-99.99,,2013-04-24 05:02:00,
2013-04-23 23:12:00,26.0,18.0,30.07,South,182,11.0,-999.0,73,-99.99,,,-99.99,,2013-04-24 05:12:00,
2013-04-23 23:22:00,26.0,18.0,30.09,South,172,12.0,-999.0,71,-99.99,,,-99.99,,2013-04-24 05:22:00,
2013-04-23 23:32:00,27.0,18.0,30.07,SSE,167,11.0,-999.0,69,-99.99,,,-99.99,,2013-04-24 05:32:00,
2013-04-23 23:42:00,27.0,17.0,30.08,South,181,12.0,-999.0,67,-99.99,,,-99.99,,2013-04-24 05:42:00,
2013-04-23 23:52:00,26.0,17.0,30.07,South,177,12.0,-999.0,70,-99.99,,,-99.99,,2013-04-24 05:52:00,